sensor_id;sensor_type;location;lat;lon;timestamp;P1;durP1;ratioP1;P2;durP2;ratioP2
14984;SDS011;7588;62.368;25.902;2023-07-08T00:00:46;8.90;;;6.80;;
14984;SDS011;7588;62.368;25.902;2023-07-08T00:03:13;8.77;;;7.50;;
14984;SDS011;7588;62.368;25.902;2023-07-08T00:05:39;8.47;;;7.63;;
14984;SDS011;7588;62.368;25.902;2023-07-08T00:08:07;8.67;;;7.03;;
14984;SDS011;7588;62.368;25.902;2023-07-08T00:10:36;10.87;;;8.10;;
14984;SDS011;7588;62.368;25.902;2023-07-08T00:13:02;11.37;;;7.43;;
14984;SDS011;7588;62.368;25.902;2023-07-08T00:15:28;9.57;;;7.23;;
14984;SDS011;7588;62.368;25.902;2023-07-08T00:17:57;11.67;;;8.60;;
14984;SDS011;7588;62.368;25.902;2023-07-08T00:20:33;10.73;;;8.23;;
14984;SDS011;7588;62.368;25.902;2023-07-08T00:23:02;14.73;;;8.53;;
14984;SDS011;7588;62.368;25.902;2023-07-08T00:25:28;9.03;;;8.13;;
14984;SDS011;7588;62.368;25.902;2023-07-08T00:27:55;8.07;;;7.20;;
14984;SDS011;7588;62.368;25.902;2023-07-08T00:30:22;12.13;;;8.57;;
14984;SDS011;7588;62.368;25.902;2023-07-08T00:32:49;9.30;;;8.03;;
14984;SDS011;7588;62.368;25.902;2023-07-08T00:35:19;9.47;;;7.80;;
14984;SDS011;7588;62.368;25.902;2023-07-08T00:37:59;10.97;;;8.17;;
14984;SDS011;7588;62.368;25.902;2023-07-08T00:40:27;9.23;;;7.77;;
14984;SDS011;7588;62.368;25.902;2023-07-08T00:42:55;10.07;;;8.13;;
14984;SDS011;7588;62.368;25.902;2023-07-08T00:50:51;13.73;;;9.07;;
14984;SDS011;7588;62.368;25.902;2023-07-08T00:53:30;11.90;;;8.43;;
14984;SDS011;7588;62.368;25.902;2023-07-08T00:55:59;12.83;;;9.53;;
14984;SDS011;7588;62.368;25.902;2023-07-08T00:58:38;12.83;;;11.27;;
14984;SDS011;7588;62.368;25.902;2023-07-08T01:01:07;12.67;;;10.97;;
14984;SDS011;7588;62.368;25.902;2023-07-08T01:03:43;12.80;;;10.27;;
14984;SDS011;7588;62.368;25.902;2023-07-08T01:06:16;16.60;;;10.47;;
14984;SDS011;7588;62.368;25.902;2023-07-08T01:08:43;13.27;;;10.97;;
14984;SDS011;7588;62.368;25.902;2023-07-08T01:11:10;13.70;;;12.17;;
14984;SDS011;7588;62.368;25.902;2023-07-08T01:13:39;13.63;;;10.97;;
14984;SDS011;7588;62.368;25.902;2023-07-08T01:16:08;15.73;;;10.53;;
14984;SDS011;7588;62.368;25.902;2023-07-08T01:18:34;18.60;;;13.37;;
14984;SDS011;7588;62.368;25.902;2023-07-08T01:21:02;18.07;;;12.73;;
14984;SDS011;7588;62.368;25.902;2023-07-08T01:23:31;17.17;;;13.77;;
14984;SDS011;7588;62.368;25.902;2023-07-08T01:25:58;14.40;;;11.90;;
14984;SDS011;7588;62.368;25.902;2023-07-08T01:28:25;14.03;;;12.53;;
14984;SDS011;7588;62.368;25.902;2023-07-08T01:30:51;19.37;;;12.87;;
14984;SDS011;7588;62.368;25.902;2023-07-08T01:33:18;13.07;;;10.83;;
14984;SDS011;7588;62.368;25.902;2023-07-08T01:35:46;16.40;;;11.90;;
14984;SDS011;7588;62.368;25.902;2023-07-08T01:38:15;14.33;;;11.37;;
14984;SDS011;7588;62.368;25.902;2023-07-08T01:40:53;12.97;;;9.60;;
14984;SDS011;7588;62.368;25.902;2023-07-08T01:43:21;12.20;;;9.87;;
14984;SDS011;7588;62.368;25.902;2023-07-08T01:45:47;13.73;;;10.30;;
14984;SDS011;7588;62.368;25.902;2023-07-08T01:48:15;14.40;;;10.53;;
14984;SDS011;7588;62.368;25.902;2023-07-08T01:50:49;14.73;;;10.33;;
14984;SDS011;7588;62.368;25.902;2023-07-08T01:53:21;16.10;;;9.33;;
14984;SDS011;7588;62.368;25.902;2023-07-08T01:55:54;12.60;;;9.77;;
14984;SDS011;7588;62.368;25.902;2023-07-08T01:58:19;13.03;;;9.43;;
14984;SDS011;7588;62.368;25.902;2023-07-08T02:00:45;14.10;;;10.00;;
14984;SDS011;7588;62.368;25.902;2023-07-08T02:03:13;12.37;;;9.87;;
14984;SDS011;7588;62.368;25.902;2023-07-08T02:05:43;14.60;;;9.30;;
14984;SDS011;7588;62.368;25.902;2023-07-08T02:08:09;10.23;;;8.73;;
14984;SDS011;7588;62.368;25.902;2023-07-08T02:10:36;15.67;;;10.57;;
14984;SDS011;7588;62.368;25.902;2023-07-08T02:13:03;12.13;;;10.70;;
14984;SDS011;7588;62.368;25.902;2023-07-08T02:15:29;18.37;;;10.87;;
14984;SDS011;7588;62.368;25.902;2023-07-08T02:17:54;14.73;;;10.13;;
14984;SDS011;7588;62.368;25.902;2023-07-08T02:20:20;18.77;;;11.73;;
14984;SDS011;7588;62.368;25.902;2023-07-08T02:22:46;14.70;;;10.77;;
14984;SDS011;7588;62.368;25.902;2023-07-08T02:25:12;15.97;;;11.90;;
14984;SDS011;7588;62.368;25.902;2023-07-08T02:27:38;21.00;;;12.43;;
14984;SDS011;7588;62.368;25.902;2023-07-08T02:30:04;14.77;;;11.00;;
14984;SDS011;7588;62.368;25.902;2023-07-08T02:32:31;14.73;;;11.23;;
14984;SDS011;7588;62.368;25.902;2023-07-08T02:35:00;17.90;;;11.10;;
14984;SDS011;7588;62.368;25.902;2023-07-08T02:37:28;13.97;;;11.53;;
14984;SDS011;7588;62.368;25.902;2023-07-08T02:39:54;16.37;;;11.90;;
14984;SDS011;7588;62.368;25.902;2023-07-08T02:42:20;16.43;;;11.77;;
14984;SDS011;7588;62.368;25.902;2023-07-08T02:44:46;13.70;;;11.33;;
14984;SDS011;7588;62.368;25.902;2023-07-08T02:47:11;15.87;;;12.03;;
14984;SDS011;7588;62.368;25.902;2023-07-08T02:49:37;18.00;;;12.47;;
14984;SDS011;7588;62.368;25.902;2023-07-08T02:52:03;18.10;;;12.90;;
14984;SDS011;7588;62.368;25.902;2023-07-08T02:54:29;14.17;;;11.63;;
14984;SDS011;7588;62.368;25.902;2023-07-08T02:56:54;16.90;;;13.40;;
14984;SDS011;7588;62.368;25.902;2023-07-08T02:59:20;12.83;;;11.23;;
14984;SDS011;7588;62.368;25.902;2023-07-08T03:01:46;14.93;;;11.80;;
14984;SDS011;7588;62.368;25.902;2023-07-08T03:04:12;15.50;;;12.43;;
14984;SDS011;7588;62.368;25.902;2023-07-08T03:06:42;13.93;;;11.60;;
14984;SDS011;7588;62.368;25.902;2023-07-08T03:09:09;15.47;;;12.03;;
14984;SDS011;7588;62.368;25.902;2023-07-08T03:11:37;14.77;;;12.77;;
14984;SDS011;7588;62.368;25.902;2023-07-08T03:14:04;14.93;;;11.90;;
14984;SDS011;7588;62.368;25.902;2023-07-08T03:16:30;16.43;;;12.20;;
14984;SDS011;7588;62.368;25.902;2023-07-08T03:18:56;15.33;;;12.40;;
14984;SDS011;7588;62.368;25.902;2023-07-08T03:21:22;14.00;;;10.67;;
14984;SDS011;7588;62.368;25.902;2023-07-08T03:23:48;16.17;;;12.03;;
14984;SDS011;7588;62.368;25.902;2023-07-08T03:26:15;14.73;;;11.43;;
14984;SDS011;7588;62.368;25.902;2023-07-08T03:28:47;12.60;;;10.63;;
14984;SDS011;7588;62.368;25.902;2023-07-08T03:31:13;13.03;;;10.43;;
14984;SDS011;7588;62.368;25.902;2023-07-08T03:33:39;13.20;;;10.77;;
14984;SDS011;7588;62.368;25.902;2023-07-08T03:36:07;14.47;;;10.33;;
14984;SDS011;7588;62.368;25.902;2023-07-08T03:38:47;11.73;;;9.87;;
14984;SDS011;7588;62.368;25.902;2023-07-08T03:41:23;13.50;;;10.27;;
14984;SDS011;7588;62.368;25.902;2023-07-08T03:43:49;12.00;;;10.60;;
14984;SDS011;7588;62.368;25.902;2023-07-08T03:46:18;11.43;;;10.03;;
14984;SDS011;7588;62.368;25.902;2023-07-08T03:48:46;13.60;;;10.33;;
14984;SDS011;7588;62.368;25.902;2023-07-08T03:51:17;11.00;;;9.90;;
14984;SDS011;7588;62.368;25.902;2023-07-08T03:53:47;10.80;;;9.70;;
14984;SDS011;7588;62.368;25.902;2023-07-08T03:56:13;11.13;;;9.27;;
14984;SDS011;7588;62.368;25.902;2023-07-08T03:58:39;9.07;;;8.17;;
14984;SDS011;7588;62.368;25.902;2023-07-08T04:01:04;10.00;;;8.27;;
14984;SDS011;7588;62.368;25.902;2023-07-08T04:03:34;9.47;;;8.53;;
14984;SDS011;7588;62.368;25.902;2023-07-08T04:06:00;8.03;;;7.20;;
14984;SDS011;7588;62.368;25.902;2023-07-08T04:08:26;8.45;;;7.32;;
14984;SDS011;7588;62.368;25.902;2023-07-08T04:10:51;8.00;;;7.20;;
14984;SDS011;7588;62.368;25.902;2023-07-08T04:13:17;5.82;;;5.22;;
14984;SDS011;7588;62.368;25.902;2023-07-08T04:15:43;5.32;;;4.70;;
14984;SDS011;7588;62.368;25.902;2023-07-08T04:18:09;4.80;;;4.40;;
14984;SDS011;7588;62.368;25.902;2023-07-08T04:20:34;5.15;;;4.65;;
14984;SDS011;7588;62.368;25.902;2023-07-08T04:23:00;5.72;;;4.25;;
14984;SDS011;7588;62.368;25.902;2023-07-08T04:25:26;4.65;;;4.22;;
14984;SDS011;7588;62.368;25.902;2023-07-08T04:27:52;4.57;;;3.75;;
14984;SDS011;7588;62.368;25.902;2023-07-08T04:30:20;4.60;;;3.67;;
14984;SDS011;7588;62.368;25.902;2023-07-08T04:32:49;5.10;;;4.60;;
14984;SDS011;7588;62.368;25.902;2023-07-08T04:35:16;4.43;;;3.80;;
14984;SDS011;7588;62.368;25.902;2023-07-08T04:37:41;4.00;;;3.67;;
14984;SDS011;7588;62.368;25.902;2023-07-08T04:40:13;4.03;;;3.63;;
14984;SDS011;7588;62.368;25.902;2023-07-08T04:42:43;4.70;;;4.30;;
14984;SDS011;7588;62.368;25.902;2023-07-08T04:45:12;5.30;;;4.75;;
14984;SDS011;7588;62.368;25.902;2023-07-08T04:47:39;4.95;;;3.85;;
14984;SDS011;7588;62.368;25.902;2023-07-08T04:50:05;5.53;;;4.43;;
14984;SDS011;7588;62.368;25.902;2023-07-08T04:52:30;5.85;;;4.90;;
14984;SDS011;7588;62.368;25.902;2023-07-08T04:54:56;5.47;;;4.63;;
14984;SDS011;7588;62.368;25.902;2023-07-08T04:57:22;6.00;;;4.88;;
14984;SDS011;7588;62.368;25.902;2023-07-08T04:59:47;5.00;;;4.53;;
14984;SDS011;7588;62.368;25.902;2023-07-08T05:02:13;5.30;;;4.78;;
14984;SDS011;7588;62.368;25.902;2023-07-08T05:04:39;7.55;;;4.75;;
14984;SDS011;7588;62.368;25.902;2023-07-08T05:07:04;9.32;;;5.10;;
14984;SDS011;7588;62.368;25.902;2023-07-08T05:09:30;5.82;;;5.25;;
14984;SDS011;7588;62.368;25.902;2023-07-08T05:11:56;5.97;;;5.22;;
14984;SDS011;7588;62.368;25.902;2023-07-08T05:14:22;6.47;;;5.03;;
14984;SDS011;7588;62.368;25.902;2023-07-08T05:16:48;5.40;;;4.90;;
14984;SDS011;7588;62.368;25.902;2023-07-08T05:19:14;5.32;;;4.70;;
14984;SDS011;7588;62.368;25.902;2023-07-08T05:21:39;7.28;;;4.63;;
14984;SDS011;7588;62.368;25.902;2023-07-08T05:24:05;6.90;;;5.35;;
14984;SDS011;7588;62.368;25.902;2023-07-08T05:26:32;5.80;;;5.20;;
14984;SDS011;7588;62.368;25.902;2023-07-08T05:28:58;4.95;;;4.45;;
14984;SDS011;7588;62.368;25.902;2023-07-08T05:31:24;5.40;;;4.90;;
14984;SDS011;7588;62.368;25.902;2023-07-08T05:33:50;4.90;;;4.47;;
14984;SDS011;7588;62.368;25.902;2023-07-08T05:36:16;4.82;;;4.38;;
14984;SDS011;7588;62.368;25.902;2023-07-08T05:38:41;4.45;;;4.05;;
14984;SDS011;7588;62.368;25.902;2023-07-08T05:41:07;5.18;;;4.22;;
14984;SDS011;7588;62.368;25.902;2023-07-08T05:43:33;4.65;;;4.25;;
14984;SDS011;7588;62.368;25.902;2023-07-08T05:45:59;3.88;;;3.58;;
14984;SDS011;7588;62.368;25.902;2023-07-08T05:48:26;4.25;;;3.53;;
14984;SDS011;7588;62.368;25.902;2023-07-08T05:50:52;4.10;;;3.22;;
14984;SDS011;7588;62.368;25.902;2023-07-08T05:53:18;3.33;;;3.05;;
14984;SDS011;7588;62.368;25.902;2023-07-08T05:55:45;4.20;;;3.80;;
14984;SDS011;7588;62.368;25.902;2023-07-08T05:58:12;3.53;;;3.20;;
14984;SDS011;7588;62.368;25.902;2023-07-08T06:00:40;3.53;;;3.22;;
14984;SDS011;7588;62.368;25.902;2023-07-08T06:03:07;4.63;;;4.22;;
14984;SDS011;7588;62.368;25.902;2023-07-08T06:05:33;4.85;;;4.32;;
14984;SDS011;7588;62.368;25.902;2023-07-08T06:07:59;4.55;;;4.13;;
14984;SDS011;7588;62.368;25.902;2023-07-08T06:10:24;5.93;;;4.90;;
14984;SDS011;7588;62.368;25.902;2023-07-08T06:12:50;5.07;;;4.68;;
14984;SDS011;7588;62.368;25.902;2023-07-08T06:15:17;6.35;;;5.78;;
14984;SDS011;7588;62.368;25.902;2023-07-08T06:17:42;7.03;;;6.40;;
14984;SDS011;7588;62.368;25.902;2023-07-08T06:20:08;7.05;;;5.88;;
14984;SDS011;7588;62.368;25.902;2023-07-08T06:22:34;6.75;;;6.05;;
14984;SDS011;7588;62.368;25.902;2023-07-08T06:25:00;7.22;;;6.53;;
14984;SDS011;7588;62.368;25.902;2023-07-08T06:27:25;6.07;;;5.57;;
14984;SDS011;7588;62.368;25.902;2023-07-08T06:29:52;5.72;;;5.22;;
14984;SDS011;7588;62.368;25.902;2023-07-08T06:32:18;5.68;;;5.18;;
14984;SDS011;7588;62.368;25.902;2023-07-08T06:34:44;5.20;;;4.80;;
14984;SDS011;7588;62.368;25.902;2023-07-08T06:37:10;5.47;;;4.97;;
14984;SDS011;7588;62.368;25.902;2023-07-08T06:39:35;5.82;;;5.22;;
14984;SDS011;7588;62.368;25.902;2023-07-08T06:42:01;7.38;;;5.25;;
14984;SDS011;7588;62.368;25.902;2023-07-08T06:44:27;5.30;;;4.53;;
14984;SDS011;7588;62.368;25.902;2023-07-08T06:46:53;5.57;;;4.97;;
14984;SDS011;7588;62.368;25.902;2023-07-08T06:49:18;5.22;;;4.20;;
14984;SDS011;7588;62.368;25.902;2023-07-08T06:51:44;5.18;;;4.70;;
14984;SDS011;7588;62.368;25.902;2023-07-08T06:54:10;4.93;;;4.43;;
14984;SDS011;7588;62.368;25.902;2023-07-08T06:56:40;5.35;;;4.88;;
14984;SDS011;7588;62.368;25.902;2023-07-08T06:59:06;4.68;;;4.28;;
14984;SDS011;7588;62.368;25.902;2023-07-08T07:01:33;5.35;;;4.40;;
14984;SDS011;7588;62.368;25.902;2023-07-08T07:03:59;5.20;;;4.38;;
14984;SDS011;7588;62.368;25.902;2023-07-08T07:06:26;4.97;;;4.57;;
14984;SDS011;7588;62.368;25.902;2023-07-08T07:08:52;5.22;;;4.07;;
14984;SDS011;7588;62.368;25.902;2023-07-08T07:11:17;4.85;;;4.10;;
14984;SDS011;7588;62.368;25.902;2023-07-08T07:13:44;5.80;;;4.53;;
14984;SDS011;7588;62.368;25.902;2023-07-08T07:16:11;6.32;;;4.43;;
14984;SDS011;7588;62.368;25.902;2023-07-08T07:18:36;4.75;;;4.35;;
14984;SDS011;7588;62.368;25.902;2023-07-08T07:21:02;5.45;;;4.35;;
14984;SDS011;7588;62.368;25.902;2023-07-08T07:23:28;4.93;;;4.40;;
14984;SDS011;7588;62.368;25.902;2023-07-08T07:25:53;5.22;;;4.72;;
14984;SDS011;7588;62.368;25.902;2023-07-08T07:28:19;5.07;;;4.60;;
14984;SDS011;7588;62.368;25.902;2023-07-08T07:30:45;4.93;;;4.43;;
14984;SDS011;7588;62.368;25.902;2023-07-08T07:33:12;5.07;;;4.57;;
14984;SDS011;7588;62.368;25.902;2023-07-08T07:35:44;5.15;;;4.65;;
14984;SDS011;7588;62.368;25.902;2023-07-08T07:38:10;4.40;;;4.10;;
14984;SDS011;7588;62.368;25.902;2023-07-08T07:40:36;4.55;;;4.15;;
14984;SDS011;7588;62.368;25.902;2023-07-08T07:43:04;4.75;;;4.25;;
14984;SDS011;7588;62.368;25.902;2023-07-08T07:45:30;4.63;;;3.90;;
14984;SDS011;7588;62.368;25.902;2023-07-08T07:47:56;4.72;;;4.05;;
14984;SDS011;7588;62.368;25.902;2023-07-08T07:50:21;5.43;;;4.60;;
14984;SDS011;7588;62.368;25.902;2023-07-08T07:52:47;8.02;;;4.45;;
14984;SDS011;7588;62.368;25.902;2023-07-08T07:55:13;12.68;;;4.63;;
14984;SDS011;7588;62.368;25.902;2023-07-08T07:57:39;12.50;;;4.10;;
14984;SDS011;7588;62.368;25.902;2023-07-08T08:00:07;7.55;;;3.97;;
14984;SDS011;7588;62.368;25.902;2023-07-08T08:02:34;5.07;;;3.95;;
14984;SDS011;7588;62.368;25.902;2023-07-08T08:05:00;7.93;;;4.50;;
14984;SDS011;7588;62.368;25.902;2023-07-08T08:07:25;5.47;;;4.18;;
14984;SDS011;7588;62.368;25.902;2023-07-08T08:09:51;5.55;;;4.65;;
14984;SDS011;7588;62.368;25.902;2023-07-08T08:12:17;5.55;;;4.32;;
14984;SDS011;7588;62.368;25.902;2023-07-08T08:14:43;5.07;;;4.45;;
14984;SDS011;7588;62.368;25.902;2023-07-08T08:17:08;6.63;;;4.82;;
14984;SDS011;7588;62.368;25.902;2023-07-08T08:19:34;5.78;;;4.78;;
14984;SDS011;7588;62.368;25.902;2023-07-08T08:22:00;5.30;;;4.40;;
14984;SDS011;7588;62.368;25.902;2023-07-08T08:24:26;8.05;;;4.47;;
14984;SDS011;7588;62.368;25.902;2023-07-08T08:26:52;5.43;;;4.93;;
14984;SDS011;7588;62.368;25.902;2023-07-08T08:29:17;4.97;;;4.30;;
14984;SDS011;7588;62.368;25.902;2023-07-08T08:31:43;4.85;;;4.45;;
14984;SDS011;7588;62.368;25.902;2023-07-08T08:34:12;5.38;;;4.65;;
14984;SDS011;7588;62.368;25.902;2023-07-08T08:36:37;4.85;;;4.35;;
14984;SDS011;7588;62.368;25.902;2023-07-08T08:39:03;4.82;;;4.28;;
14984;SDS011;7588;62.368;25.902;2023-07-08T08:41:33;4.65;;;4.25;;
14984;SDS011;7588;62.368;25.902;2023-07-08T08:44:00;3.97;;;3.63;;
14984;SDS011;7588;62.368;25.902;2023-07-08T08:46:47;4.00;;;3.53;;
14984;SDS011;7588;62.368;25.902;2023-07-08T08:49:32;5.85;;;3.13;;
14984;SDS011;7588;62.368;25.902;2023-07-08T08:52:14;4.05;;;2.92;;
14984;SDS011;7588;62.368;25.902;2023-07-08T08:54:40;4.03;;;3.30;;
14984;SDS011;7588;62.368;25.902;2023-07-08T08:57:16;6.13;;;2.60;;
14984;SDS011;7588;62.368;25.902;2023-07-08T08:59:55;5.90;;;3.25;;
14984;SDS011;7588;62.368;25.902;2023-07-08T09:04:53;3.30;;;3.00;;
14984;SDS011;7588;62.368;25.902;2023-07-08T09:07:20;2.80;;;2.45;;
14984;SDS011;7588;62.368;25.902;2023-07-08T09:09:51;3.83;;;3.20;;
14984;SDS011;7588;62.368;25.902;2023-07-08T09:12:32;4.85;;;3.30;;
14984;SDS011;7588;62.368;25.902;2023-07-08T09:14:59;3.17;;;2.88;;
14984;SDS011;7588;62.368;25.902;2023-07-08T09:17:35;3.08;;;2.65;;
14984;SDS011;7588;62.368;25.902;2023-07-08T09:22:56;4.10;;;3.03;;
14984;SDS011;7588;62.368;25.902;2023-07-08T09:25:44;2.90;;;2.55;;
14984;SDS011;7588;62.368;25.902;2023-07-08T09:28:19;3.08;;;2.60;;
14984;SDS011;7588;62.368;25.902;2023-07-08T09:30:48;3.13;;;2.83;;
14984;SDS011;7588;62.368;25.902;2023-07-08T09:33:17;2.90;;;2.58;;
14984;SDS011;7588;62.368;25.902;2023-07-08T09:35:43;4.50;;;3.20;;
14984;SDS011;7588;62.368;25.902;2023-07-08T09:38:17;3.47;;;3.17;;
14984;SDS011;7588;62.368;25.902;2023-07-08T09:40:47;3.83;;;2.90;;
14984;SDS011;7588;62.368;25.902;2023-07-08T09:46:01;3.28;;;2.97;;
14984;SDS011;7588;62.368;25.902;2023-07-08T09:48:33;3.15;;;2.83;;
14984;SDS011;7588;62.368;25.902;2023-07-08T09:51:00;3.83;;;3.50;;
14984;SDS011;7588;62.368;25.902;2023-07-08T09:53:26;3.35;;;3.05;;
14984;SDS011;7588;62.368;25.902;2023-07-08T09:55:52;4.32;;;3.55;;
14984;SDS011;7588;62.368;25.902;2023-07-08T09:58:24;3.20;;;2.90;;
14984;SDS011;7588;62.368;25.902;2023-07-08T10:00:54;2.95;;;2.67;;
14984;SDS011;7588;62.368;25.902;2023-07-08T10:03:23;5.05;;;3.00;;
14984;SDS011;7588;62.368;25.902;2023-07-08T10:05:51;3.70;;;3.40;;
14984;SDS011;7588;62.368;25.902;2023-07-08T10:08:22;6.22;;;3.45;;
14984;SDS011;7588;62.368;25.902;2023-07-08T10:10:53;3.03;;;2.80;;
14984;SDS011;7588;62.368;25.902;2023-07-08T10:16:15;4.65;;;2.50;;
14984;SDS011;7588;62.368;25.902;2023-07-08T10:18:47;9.00;;;3.30;;
14984;SDS011;7588;62.368;25.902;2023-07-08T10:30:01;2.75;;;2.50;;
14984;SDS011;7588;62.368;25.902;2023-07-08T10:35:27;4.95;;;2.63;;
14984;SDS011;7588;62.368;25.902;2023-07-08T10:40:49;2.33;;;2.13;;
14984;SDS011;7588;62.368;25.902;2023-07-08T10:43:37;2.17;;;2.08;;
14984;SDS011;7588;62.368;25.902;2023-07-08T10:46:26;2.85;;;2.65;;
14984;SDS011;7588;62.368;25.902;2023-07-08T10:51:36;2.65;;;2.45;;
14984;SDS011;7588;62.368;25.902;2023-07-08T11:08:18;3.08;;;2.58;;
14984;SDS011;7588;62.368;25.902;2023-07-08T11:13:12;2.63;;;2.42;;
14984;SDS011;7588;62.368;25.902;2023-07-08T11:21:14;2.97;;;2.60;;
14984;SDS011;7588;62.368;25.902;2023-07-08T11:29:21;3.97;;;3.28;;
14984;SDS011;7588;62.368;25.902;2023-07-08T11:32:09;3.70;;;2.92;;
14984;SDS011;7588;62.368;25.902;2023-07-08T11:34:41;4.07;;;3.35;;
14984;SDS011;7588;62.368;25.902;2023-07-08T11:37:09;3.58;;;2.83;;
14984;SDS011;7588;62.368;25.902;2023-07-08T11:39:44;3.78;;;2.97;;
14984;SDS011;7588;62.368;25.902;2023-07-08T11:42:54;5.80;;;3.10;;
14984;SDS011;7588;62.368;25.902;2023-07-08T11:45:27;3.40;;;3.10;;
14984;SDS011;7588;62.368;25.902;2023-07-08T11:48:06;3.53;;;3.13;;
14984;SDS011;7588;62.368;25.902;2023-07-08T11:50:41;2.72;;;2.42;;
14984;SDS011;7588;62.368;25.902;2023-07-08T11:53:13;4.38;;;3.35;;
14984;SDS011;7588;62.368;25.902;2023-07-08T11:55:59;4.25;;;3.00;;
14984;SDS011;7588;62.368;25.902;2023-07-08T11:58:30;3.50;;;3.20;;
14984;SDS011;7588;62.368;25.902;2023-07-08T12:03:59;3.72;;;3.33;;
14984;SDS011;7588;62.368;25.902;2023-07-08T12:08:52;3.33;;;3.03;;
14984;SDS011;7588;62.368;25.902;2023-07-08T12:11:20;3.03;;;2.83;;
14984;SDS011;7588;62.368;25.902;2023-07-08T12:13:57;4.68;;;4.22;;
14984;SDS011;7588;62.368;25.902;2023-07-08T12:16:25;4.80;;;3.22;;
14984;SDS011;7588;62.368;25.902;2023-07-08T12:18:52;3.60;;;3.30;;
14984;SDS011;7588;62.368;25.902;2023-07-08T12:21:21;4.10;;;3.70;;
14984;SDS011;7588;62.368;25.902;2023-07-08T12:23:48;4.20;;;3.30;;
14984;SDS011;7588;62.368;25.902;2023-07-08T12:26:14;4.03;;;3.40;;
14984;SDS011;7588;62.368;25.902;2023-07-08T12:28:42;5.00;;;3.20;;
14984;SDS011;7588;62.368;25.902;2023-07-08T12:31:22;4.72;;;3.85;;
14984;SDS011;7588;62.368;25.902;2023-07-08T12:33:49;3.38;;;3.08;;
14984;SDS011;7588;62.368;25.902;2023-07-08T12:36:17;3.33;;;3.03;;
14984;SDS011;7588;62.368;25.902;2023-07-08T12:38:50;4.57;;;3.10;;
14984;SDS011;7588;62.368;25.902;2023-07-08T12:41:18;4.60;;;3.15;;
14984;SDS011;7588;62.368;25.902;2023-07-08T12:43:49;4.85;;;3.13;;
14984;SDS011;7588;62.368;25.902;2023-07-08T12:46:17;4.40;;;3.25;;
14984;SDS011;7588;62.368;25.902;2023-07-08T12:48:46;4.80;;;3.00;;
14984;SDS011;7588;62.368;25.902;2023-07-08T12:51:16;3.30;;;3.00;;
14984;SDS011;7588;62.368;25.902;2023-07-08T12:53:45;3.53;;;3.22;;
14984;SDS011;7588;62.368;25.902;2023-07-08T12:56:12;4.97;;;3.45;;
14984;SDS011;7588;62.368;25.902;2023-07-08T12:58:42;4.70;;;3.58;;
14984;SDS011;7588;62.368;25.902;2023-07-08T13:01:13;4.03;;;3.33;;
14984;SDS011;7588;62.368;25.902;2023-07-08T13:03:45;3.28;;;3.00;;
14984;SDS011;7588;62.368;25.902;2023-07-08T13:06:15;3.72;;;3.40;;
14984;SDS011;7588;62.368;25.902;2023-07-08T13:08:42;3.55;;;3.25;;
14984;SDS011;7588;62.368;25.902;2023-07-08T13:11:11;6.18;;;3.65;;
14984;SDS011;7588;62.368;25.902;2023-07-08T13:13:43;4.85;;;3.15;;
14984;SDS011;7588;62.368;25.902;2023-07-08T13:16:18;4.43;;;3.40;;
14984;SDS011;7588;62.368;25.902;2023-07-08T13:18:44;3.60;;;3.30;;
14984;SDS011;7588;62.368;25.902;2023-07-08T13:21:12;3.95;;;3.25;;
14984;SDS011;7588;62.368;25.902;2023-07-08T13:23:39;4.82;;;3.33;;
14984;SDS011;7588;62.368;25.902;2023-07-08T13:26:11;3.60;;;3.30;;
14984;SDS011;7588;62.368;25.902;2023-07-08T13:28:45;5.40;;;3.70;;
14984;SDS011;7588;62.368;25.902;2023-07-08T13:31:17;3.97;;;3.63;;
14984;SDS011;7588;62.368;25.902;2023-07-08T13:33:46;4.68;;;3.67;;
14984;SDS011;7588;62.368;25.902;2023-07-08T13:36:13;4.20;;;3.53;;
14984;SDS011;7588;62.368;25.902;2023-07-08T13:38:42;4.28;;;3.88;;
14984;SDS011;7588;62.368;25.902;2023-07-08T13:41:08;4.03;;;3.33;;
14984;SDS011;7588;62.368;25.902;2023-07-08T13:43:35;3.85;;;3.40;;
14984;SDS011;7588;62.368;25.902;2023-07-08T13:46:03;7.13;;;3.95;;
14984;SDS011;7588;62.368;25.902;2023-07-08T13:48:37;4.97;;;3.90;;
14984;SDS011;7588;62.368;25.902;2023-07-08T13:51:08;3.55;;;3.30;;
14984;SDS011;7588;62.368;25.902;2023-07-08T13:56:12;3.75;;;3.25;;
14984;SDS011;7588;62.368;25.902;2023-07-08T13:58:42;3.47;;;2.97;;
14984;SDS011;7588;62.368;25.902;2023-07-08T14:01:23;3.95;;;2.60;;
14984;SDS011;7588;62.368;25.902;2023-07-08T14:03:50;6.07;;;2.92;;
14984;SDS011;7588;62.368;25.902;2023-07-08T14:06:22;3.65;;;3.10;;
14984;SDS011;7588;62.368;25.902;2023-07-08T14:08:53;5.57;;;3.63;;
14984;SDS011;7588;62.368;25.902;2023-07-08T14:11:21;5.88;;;4.20;;
14984;SDS011;7588;62.368;25.902;2023-07-08T14:13:47;3.90;;;3.53;;
14984;SDS011;7588;62.368;25.902;2023-07-08T14:18:59;6.25;;;2.88;;
14984;SDS011;7588;62.368;25.902;2023-07-08T14:21:28;7.38;;;2.92;;
14984;SDS011;7588;62.368;25.902;2023-07-08T14:23:55;5.78;;;3.38;;
14984;SDS011;7588;62.368;25.902;2023-07-08T14:26:20;3.13;;;2.83;;
14984;SDS011;7588;62.368;25.902;2023-07-08T14:28:46;4.00;;;2.80;;
14984;SDS011;7588;62.368;25.902;2023-07-08T14:31:12;2.80;;;2.60;;
14984;SDS011;7588;62.368;25.902;2023-07-08T14:33:42;3.00;;;2.80;;
14984;SDS011;7588;62.368;25.902;2023-07-08T14:36:11;3.10;;;2.83;;
14984;SDS011;7588;62.368;25.902;2023-07-08T14:38:37;3.13;;;2.67;;
14984;SDS011;7588;62.368;25.902;2023-07-08T14:41:03;3.83;;;2.67;;
14984;SDS011;7588;62.368;25.902;2023-07-08T14:43:30;2.90;;;1.95;;
14984;SDS011;7588;62.368;25.902;2023-07-08T14:45:58;2.72;;;2.20;;
14984;SDS011;7588;62.368;25.902;2023-07-08T14:48:30;3.30;;;2.80;;
14984;SDS011;7588;62.368;25.902;2023-07-08T14:50:57;3.45;;;2.33;;
14984;SDS011;7588;62.368;25.902;2023-07-08T14:53:23;2.63;;;2.42;;
14984;SDS011;7588;62.368;25.902;2023-07-08T14:55:50;4.32;;;2.60;;
14984;SDS011;7588;62.368;25.902;2023-07-08T15:00:49;2.70;;;2.50;;
14984;SDS011;7588;62.368;25.902;2023-07-08T15:03:16;3.00;;;2.50;;
14984;SDS011;7588;62.368;25.902;2023-07-08T15:05:42;3.83;;;2.70;;
14984;SDS011;7588;62.368;25.902;2023-07-08T15:08:07;2.55;;;2.35;;
14984;SDS011;7588;62.368;25.902;2023-07-08T15:10:33;2.60;;;2.40;;
14984;SDS011;7588;62.368;25.902;2023-07-08T15:13:01;3.15;;;2.63;;
14984;SDS011;7588;62.368;25.902;2023-07-08T15:15:28;2.83;;;2.63;;
14984;SDS011;7588;62.368;25.902;2023-07-08T15:17:56;3.92;;;2.40;;
14984;SDS011;7588;62.368;25.902;2023-07-08T15:20:23;2.88;;;2.67;;
14984;SDS011;7588;62.368;25.902;2023-07-08T15:22:49;2.80;;;2.60;;
14984;SDS011;7588;62.368;25.902;2023-07-08T15:25:16;4.32;;;2.85;;
14984;SDS011;7588;62.368;25.902;2023-07-08T15:27:43;3.42;;;2.88;;
14984;SDS011;7588;62.368;25.902;2023-07-08T15:30:16;3.47;;;2.65;;
14984;SDS011;7588;62.368;25.902;2023-07-08T15:32:47;2.40;;;2.05;;
14984;SDS011;7588;62.368;25.902;2023-07-08T15:35:17;2.58;;;1.80;;
14984;SDS011;7588;62.368;25.902;2023-07-08T15:37:49;2.88;;;1.50;;
14984;SDS011;7588;62.368;25.902;2023-07-08T15:40:15;2.35;;;1.10;;
14984;SDS011;7588;62.368;25.902;2023-07-08T15:42:44;0.70;;;0.70;;
14984;SDS011;7588;62.368;25.902;2023-07-08T15:45:13;5.18;;;1.00;;
14984;SDS011;7588;62.368;25.902;2023-07-08T15:47:45;1.52;;;0.80;;
14984;SDS011;7588;62.368;25.902;2023-07-08T15:50:11;1.00;;;0.90;;
14984;SDS011;7588;62.368;25.902;2023-07-08T15:52:39;0.95;;;0.80;;
14984;SDS011;7588;62.368;25.902;2023-07-08T15:55:06;4.68;;;0.85;;
14984;SDS011;7588;62.368;25.902;2023-07-08T15:57:34;1.33;;;0.85;;
14984;SDS011;7588;62.368;25.902;2023-07-08T16:00:16;1.23;;;0.90;;
14984;SDS011;7588;62.368;25.902;2023-07-08T16:02:46;0.73;;;0.70;;
14984;SDS011;7588;62.368;25.902;2023-07-08T16:05:14;3.05;;;1.02;;